createdAt,value
2023-05-14T00:00:02.193Z,55.89165689096431
2023-05-14T00:15:01.808Z,57.38110468022457
2023-05-14T00:30:02.466Z,56.790916420218764
2023-05-14T00:45:02.124Z,57.5724601993665
2023-05-14T01:00:01.766Z,57.22506704631287
2023-05-14T01:15:02.347Z,57.06065282354087
2023-05-14T01:30:02.040Z,58.07844353931247
2023-05-14T01:45:01.691Z,59.10507312132833
2023-05-14T02:00:02.326Z,57.6351043692014
2023-05-14T02:15:01.987Z,58.88090052686031
2023-05-14T02:30:01.633Z,57.80581529245857
2023-05-14T02:45:02.211Z,57.62938968669497
2023-05-14T03:00:01.803Z,59.97128226283834
2023-05-14T03:15:01.869Z,58.700929348572465
2023-05-14T03:30:02.519Z,59.34690743643485
2023-05-14T03:45:02.126Z,58.356124915616604
2023-05-14T04:00:01.782Z,60.16705791955887
2023-05-14T04:15:02.416Z,58.81545090168476
2023-05-14T04:30:01.596Z,58.730634870259095
2023-05-14T04:45:02.187Z,58.762864559129646
2023-05-14T05:00:01.940Z,58.481162723664816
2023-05-14T05:15:01.743Z,58.386775085820275
2023-05-14T05:30:02.411Z,58.654020587641845
2023-05-14T05:45:02.030Z,58.30113068463433
2023-05-14T06:00:01.663Z,58.386538600886304
2023-05-14T06:15:02.275Z,57.97245468057591
2023-05-14T06:30:01.922Z,58.105875741293346
2023-05-14T06:45:02.511Z,58.610461567395326
2023-05-14T07:00:03.712Z,58.552138461710186
2023-05-14T07:15:01.618Z,59.27282943244572
2023-05-14T07:30:02.324Z,59.7954878811471
2023-05-14T07:45:02.002Z,59.90201303078861
2023-05-14T08:00:01.650Z,59.43708460614961
2023-05-14T08:15:02.276Z,58.289984336552884
2023-05-14T08:30:01.942Z,57.115777612847275
2023-05-14T08:45:01.581Z,56.14351617861448
2023-05-14T09:00:02.221Z,53.51069774154881
2023-05-14T09:15:01.869Z,51.420192266986
2023-05-14T09:30:02.528Z,51.522184145456194
2023-05-14T09:45:02.171Z,52.187535846851716
2023-05-14T10:00:01.839Z,50.90226204415167
2023-05-14T10:15:02.470Z,47.98943383770807
2023-05-14T10:30:02.101Z,45.115998163529106
2023-05-14T10:45:01.700Z,46.970659694619215
2023-05-14T11:00:02.333Z,47.37194226947475
2023-05-14T11:15:01.969Z,45.82465669882259
2023-05-14T11:30:01.654Z,46.1185304393945
2023-05-14T11:45:02.286Z,44.911426271758536
2023-05-14T12:00:01.889Z,41.78991624737624
2023-05-14T12:15:02.522Z,41.50565270451798
2023-05-14T12:30:19.030Z,40.78209864600943
2023-05-14T12:45:02.064Z,40.846865330405414
2023-05-14T13:00:01.709Z,35.84005743453516
2023-05-14T13:15:02.313Z,36.40496513516801
2023-05-14T13:30:01.988Z,37.56661675861755
2023-05-14T13:45:01.644Z,37.98160213562414
2023-05-14T14:00:02.275Z,36.75067518103667
2023-05-14T14:15:01.895Z,38.92074761531018
2023-05-14T14:30:02.546Z,34.426067504525534
2023-05-14T14:45:02.146Z,37.36249441655082
2023-05-14T15:00:02.715Z,38.2521442721151
2023-05-14T15:15:02.539Z,34.80059299436838
2023-05-14T15:30:02.288Z,32.42786102541313
2023-05-14T15:45:01.932Z,37.25849199594386
2023-05-14T16:00:01.601Z,38.54044848714515
2023-05-14T16:15:02.243Z,38.772067135448985
2023-05-14T16:30:01.940Z,39.19430940933511
2023-05-14T16:45:01.610Z,38.46632668079677
2023-05-14T17:00:02.329Z,38.14179113868816
2023-05-14T17:15:04.467Z,37.77093411262981
2023-05-14T17:30:02.096Z,40.32885698569063
2023-05-14T17:45:01.771Z,39.08792667220846
2023-05-14T18:00:02.455Z,38.31534961322694
2023-05-14T18:15:02.051Z,40.041881631686095
2023-05-14T18:30:01.758Z,40.838995886755484
2023-05-14T18:45:02.359Z,42.51848247926172
2023-05-14T19:00:02.042Z,43.18836833963087
2023-05-14T19:15:01.727Z,43.710038318454714
2023-05-14T19:30:02.333Z,42.59174565584191
2023-05-14T19:45:01.979Z,43.5767777089238
2023-05-14T20:00:01.611Z,44.055727518417015
2023-05-14T20:15:02.257Z,45.14835752349987
2023-05-14T20:30:01.945Z,45.68970657778177
2023-05-14T20:45:01.549Z,45.95536589818419
2023-05-14T21:00:02.150Z,46.57707647842075
2023-05-14T21:15:01.792Z,47.01700481023435
2023-05-14T21:30:02.457Z,47.39870848420976
2023-05-14T21:45:02.124Z,47.75540328484021
2023-05-14T22:00:01.765Z,48.20646791369213
2023-05-14T22:15:02.400Z,48.50975064946816
2023-05-14T22:30:02.023Z,48.95227776520063
2023-05-14T22:45:01.700Z,49.075579943529725
2023-05-14T23:00:02.349Z,49.36096066424959
2023-05-14T23:15:01.975Z,49.901928018895
2023-05-14T23:30:01.700Z,52.02659647028962
2023-05-14T23:45:02.352Z,50.592725672204494
